SBCGSBFI

Guest
Details From SBCG - Campo Grande
To SBFI - Foz Do Iguacu
Flight Number -
Tags Generated
Created
Modified
Stats Distance 307 nm / 569 km
Max Altitude 0 ft / 0 m
Waypoints 3
Social Downloads 1
Likes 0
Share VATSIM

Download

Looking for another format? Having issues loading an existing format? Contact us
Advertisement - Login to hide

Notes

Generated

Route

SBCG GAXAS SBFI

ID Type Via Altitude Latitude Longitude Leg Dist Tot Dist Heading (true) Name
O SBCG APT - 0 ft / 0 m -20.47754˚ -54.68069˚ - 0 nm - -
GAXAS FIX - 0 ft / 0 m -25.40250˚ -54.51111˚ 295 nm 295 nm 178° / 178° -
O SBFI APT - 0 ft / 0 m -25.58931˚ -54.49576˚ 11 nm 307 nm 176° / 176° -

Altitude Profile

Advertisement - Login to hide

Weather


0- 5 10 15 20 25 30 35+ Temperature / ° C

Clouds and Precipitation
Forecast for 2017-12-14 12:00 UTC. Updated an hour ago

Ground ~20,000 ft ~40,000 ft Winds

SBCG

Details ICAO SBCG (CGR)
Name Campo Grande
Region Brazil
Timezone America/Campo_Grande (UTC-3.0)
Stats Elevation 1,833 ft / 559 m (AMSL)
Location -20.468666° -54.672500°
Runways 1
Magnetic Variation 17.531° W

METAR

SBCG 140800Z 09010KT CAVOK 24/21 Q1013

Decode

TAF

TAF SBCG 140300Z 1406/1506 08008KT 9999 SCT045 TN22/1408Z TX31/1417Z BECMG 1406/1408 CAVOK BECMG 1412/1414 9999 SCT040 FEW045TCU PROB30 TEMPO 1417/1419 VCSH BECMG 1423/1501 FEW040 RMK PER

Decode

Departure Runways

ID Width Length Bearing (true) Bearing (mag) Surface Threshold Offset Overrun Length
06 141 ft / 43 m 8,563 ft / 2,610 m 40.84° 58.37° Asphalt 0 ft / 0 m 192 ft / 59 m
24 141 ft / 43 m 8,563 ft / 2,610 m 220.83° 238.36° Asphalt 0 ft / 0 m 190 ft / 58 m

SBFI

Details ICAO SBFI (IGU)
Name Foz Do Iguacu
Region Brazil
Timezone America/Sao_Paulo (UTC-2.0)
Stats Elevation 787 ft / 240 m (AMSL)
Location -25.595790° -54.487443°
Runways 1
Magnetic Variation 16.285° W

METAR

SBFI 140800Z 11003KT CAVOK 23/21 Q1013

Decode

TAF

TAF SBFI 140300Z 1406/1506 12005KT CAVOK TN22/1408Z TX35/1418Z BECMG 1413/1415 35008KT 9999 FEW040 BECMG 1421/1423 09005KT CAVOK RMK PER

Decode

Destination Runways

ID Width Length Bearing (true) Bearing (mag) Surface Threshold Offset Overrun Length
14 148 ft / 45 m 7,232 ft / 2,204 m 130.83° 147.12° Asphalt 0 ft / 0 m 164 ft / 50 m
32 148 ft / 45 m 7,232 ft / 2,204 m 310.83° 327.12° Asphalt 0 ft / 0 m 197 ft / 60 m

Approach Navaids

Runway Type Ident Frequency Range Bearing (true) Bearing (mag) Slope Elevation
14 Localiser IFI 109.10 MHz 18 nm / 33 km 130.98° 147.27° - 761 ft / 232 m (AMSL)
14 Glidescope IFI 109.10 MHz 10 nm / 19 km 130.83° 147.11° 3.00° 761 ft / 232 m (AMSL)